This is the latest recevied weather packets stored in our database for station/object SP2WM. If no packets are shown the sender has not sent any weather packets the latest 10 day(s).
| Time | Temp. | Humidity | Pressure | Rain* | Wind** | Luminosity | Snow |
|---|---|---|---|---|---|---|---|
| 1777690820 | 3.89° C | 87% | 1021.7 hPa | 0 mm | - | - | - |
| 1777690220 | 3.89° C | 86% | 1021.7 hPa | 0 mm | - | - | - |
| 1777689619 | 4.44° C | 86% | 1021.7 hPa | 0 mm | - | - | - |
| 1777689024 | 4.44° C | 86% | 1021.7 hPa | 0 mm | - | - | - |
| 1777688424 | 4.44° C | 87% | 1021.7 hPa | 0 mm | - | - | - |
| 1777687824 | 4.44° C | 87% | 1021.7 hPa | 0 mm | - | - | - |
| 1777673418 | 8.33° C | 77% | 1022.4 hPa | 0 mm | - | - | - |
| 1777672240 | 8.33° C | 74% | 1022.4 hPa | 0 mm | - | - | - |
| 1777671022 | 8.89° C | 71% | 1022.3 hPa | 0 mm | - | - | - |
| 1777670425 | 9.44° C | 72% | 1022.3 hPa | 0 mm | - | - | - |
| 1777668029 | 10° C | 67% | 1022.3 hPa | 0 mm | - | - | - |
| 1777666826 | 11.11° C | 65% | 1022.3 hPa | 0 mm | - | - | - |
| 1777666230 | 11.11° C | 65% | 1022.4 hPa | 0 mm | - | - | - |
| 1777665631 | 11.67° C | 63% | 1022.3 hPa | 0 mm | - | - | - |
| 1777665033 | 11.67° C | 62% | 1022.4 hPa | 0 mm | - | - | - |
| 1777663833 | 12.78° C | 60% | 1022.4 hPa | 0 mm | - | - | - |
| 1777661438 | 15.56° C | 51% | 1022.2 hPa | 0 mm | - | - | - |
| 1777660218 | 17.22° C | 46% | 1022.2 hPa | 0 mm | - | - | - |
| 1777659639 | 17.78° C | 44% | 1022.1 hPa | 0 mm | - | - | - |
| 1777659038 | 18.89° C | 42% | 1022 hPa | 0 mm | - | - | - |
| 1777656026 | 23.89° C | 30% | 1021.9 hPa | 0 mm | - | - | - |
| 1777655427 | 23.89° C | 31% | 1021.9 hPa | 0 mm | - | - | - |
| 1777653631 | 24.44° C | 30% | 1021.9 hPa | 0 mm | - | - | - |
| 1777652437 | 25° C | 29% | 1021.9 hPa | 0 mm | - | - | - |
| 1777651834 | 25.56° C | 29% | 1022 hPa | 0 mm | - | - | - |
* Rain latest hour (hover to see other rain measurements)
** Current wind speed in m/s (hover to see current wind gust speed)